createdAt,value
2017-04-12T00:00:08.653Z,24.52
2017-04-12T00:01:18.870Z,24.52
2017-04-12T00:02:29.156Z,24.43
2017-04-12T00:03:39.140Z,24.52
2017-04-12T00:04:49.115Z,24.62
2017-04-12T00:05:59.397Z,24.91
2017-04-12T00:07:09.625Z,24.81
2017-04-12T00:08:19.593Z,24.81
2017-04-12T00:09:29.586Z,24.81
2017-04-12T00:10:39.873Z,25.01
2017-04-12T00:11:49.877Z,25.01
2017-04-12T00:13:00.414Z,24.81
2017-04-12T00:14:10.907Z,24.71
2017-04-12T00:15:20.888Z,25.18
2017-04-12T00:16:31.172Z,25.1
2017-04-12T00:17:41.467Z,24.91
2017-04-12T00:18:52.030Z,24.99
2017-04-12T00:20:02.323Z,24.91
2017-04-12T00:21:12.613Z,24.8
2017-04-12T00:22:22.592Z,25.39
2017-04-12T00:23:32.565Z,25.2
2017-04-12T00:24:43.105Z,25.09
2017-04-12T00:25:53.398Z,25.1
2017-04-12T00:27:03.684Z,25.29
2017-04-12T00:28:13.662Z,25.18
2017-04-12T00:29:23.953Z,25.29
2017-04-12T00:30:34.186Z,25.29
2017-04-12T00:31:44.465Z,25.39
2017-04-12T00:32:54.761Z,25.48
2017-04-12T00:34:04.730Z,25.58
2017-04-12T00:35:15.017Z,25.47
2017-04-12T00:36:25.289Z,25.38
2017-04-12T00:37:35.255Z,25.67
2017-04-12T00:38:45.548Z,25.67
2017-04-12T00:39:55.834Z,25.78
2017-04-12T00:41:06.117Z,25.68
2017-04-12T00:42:16.328Z,25.67
2017-04-12T00:43:26.613Z,25.96
2017-04-12T00:44:36.907Z,25.96
2017-04-12T00:45:46.880Z,25.95
2017-04-12T00:46:56.853Z,25.87
2017-04-12T00:48:07.393Z,25.87
2017-04-12T00:49:17.684Z,25.78
2017-04-12T00:50:27.664Z,25.85
2017-04-12T00:51:37.952Z,25.78
2017-04-12T00:52:47.633Z,25.78
2017-04-12T00:53:58.164Z,25.68
2017-04-12T00:55:08.438Z,25.67
2017-04-12T00:56:18.422Z,26.05
2017-04-12T00:57:28.719Z,25.67
2017-04-12T00:58:39.000Z,25.67
2017-04-12T00:59:49.592Z,25.85
2017-04-12T01:00:59.890Z,26.05
2017-04-12T01:02:09.863Z,26.05
2017-04-12T01:03:20.163Z,26.16
2017-04-12T01:04:30.453Z,26.05
2017-04-12T01:05:41.001Z,26.24
2017-04-12T01:06:51.280Z,26.15
2017-04-12T01:08:01.302Z,26.05
2017-04-12T01:09:11.288Z,25.95
2017-04-12T01:10:21.583Z,26.05
2017-04-12T01:11:32.112Z,25.87
2017-04-12T01:12:42.100Z,26.15
2017-04-12T01:13:52.380Z,26.05
2017-04-12T01:15:02.662Z,26.15
2017-04-12T01:16:12.658Z,26.24
2017-04-12T01:17:22.886Z,26.24
2017-04-12T01:18:33.184Z,26.43
2017-04-12T01:19:43.475Z,26.34
2017-04-12T01:20:53.528Z,26.43
2017-04-12T01:22:03.502Z,26.43
2017-04-12T01:23:14.039Z,26.34
2017-04-12T01:24:24.327Z,26.62
2017-04-12T01:25:34.302Z,26.53
2017-04-12T01:26:44.606Z,26.43
2017-04-12T01:27:54.912Z,26.34
2017-04-12T01:29:05.494Z,26.34
2017-04-12T01:30:15.814Z,26.34
2017-04-12T01:31:25.795Z,26.25
2017-04-12T01:32:36.082Z,26.24
2017-04-12T01:33:46.569Z,26.43
2017-04-12T01:34:57.188Z,26.24
2017-04-12T01:36:07.483Z,26.24
2017-04-12T01:37:17.796Z,26.34
2017-04-12T01:38:28.085Z,26.24
2017-04-12T01:39:38.062Z,26.24
2017-04-12T01:40:48.041Z,26.25
2017-04-12T01:41:58.006Z,26.35
2017-04-12T01:43:08.290Z,26.43
2017-04-12T01:44:18.261Z,26.53
2017-04-12T01:45:28.254Z,26.43
2017-04-12T01:46:38.785Z,26.53
2017-04-12T01:47:49.100Z,26.62
2017-04-12T01:48:59.425Z,26.62
2017-04-12T01:50:09.702Z,26.82
2017-04-12T01:51:20.116Z,26.82
2017-04-12T01:52:30.407Z,26.92
2017-04-12T01:53:40.375Z,26.92
2017-04-12T01:54:50.356Z,26.82
2017-04-12T01:56:00.321Z,26.62
2017-04-12T01:57:10.627Z,26.72
2017-04-12T01:58:21.212Z,26.72
2017-04-12T01:59:31.491Z,26.82
2017-04-12T02:00:41.778Z,26.92
2017-04-12T02:01:52.155Z,26.82
2017-04-12T02:03:02.122Z,26.92
2017-04-12T02:04:12.373Z,26.82
2017-04-12T02:05:22.669Z,26.82
2017-04-12T02:06:32.954Z,26.83
2017-04-12T02:07:42.926Z,27.01
2017-04-12T02:08:53.206Z,26.82
2017-04-12T02:10:03.783Z,26.82
2017-04-12T02:11:13.790Z,26.93
2017-04-12T02:12:24.076Z,27.22
2017-04-12T02:13:34.363Z,27.11
2017-04-12T02:14:44.327Z,27.12
2017-04-12T02:15:54.860Z,27.02
2017-04-12T02:17:05.136Z,27.11
2017-04-12T02:18:15.427Z,27.2
2017-04-12T02:19:25.712Z,27.2
2017-04-12T02:20:35.680Z,27.3
2017-04-12T02:21:46.228Z,27.22
2017-04-12T02:22:56.516Z,27.2
2017-04-12T02:24:06.819Z,27.11
2017-04-12T02:25:16.793Z,27.22
2017-04-12T02:26:26.762Z,27.01
2017-04-12T02:27:37.299Z,27.01
2017-04-12T02:28:47.573Z,27.12
2017-04-12T02:29:57.864Z,27.01
2017-04-12T02:31:08.218Z,27.11
2017-04-12T02:32:18.191Z,27.3
2017-04-12T02:33:28.732Z,27.2
2017-04-12T02:34:38.703Z,27.2
2017-04-12T02:35:48.360Z,27.3
2017-04-12T02:36:58.017Z,27.3
2017-04-12T02:38:08.298Z,27.3
2017-04-12T02:39:18.851Z,26.92
2017-04-12T02:40:29.133Z,27.11
2017-04-12T02:41:39.418Z,27.39
2017-04-12T02:42:49.713Z,27.59
2017-04-12T02:43:59.695Z,27.11
2017-04-12T02:52:03.015Z,27.2
2017-04-12T02:53:13.303Z,27.11
2017-04-12T02:54:23.276Z,27.49
2017-04-12T02:55:33.557Z,27.3
2017-04-12T02:56:43.845Z,27.01
2017-04-12T02:57:53.898Z,26.92
2017-04-12T02:59:04.181Z,27.49
2017-04-12T03:00:14.357Z,27.3
2017-04-12T03:01:24.644Z,27.39
2017-04-12T03:02:34.933Z,27.3
2017-04-12T03:03:45.475Z,27.39
2017-04-12T03:04:55.758Z,27.39
2017-04-12T03:06:05.930Z,27.49
2017-04-12T03:07:16.212Z,27.39
2017-04-12T03:08:26.184Z,27.49
2017-04-12T03:09:36.719Z,27.3
2017-04-12T03:10:46.689Z,27.39
2017-04-12T03:11:56.658Z,27.59
2017-04-12T03:13:06.945Z,27.39
2017-04-12T03:14:16.978Z,27.2
2017-04-12T03:15:27.520Z,27.11
2017-04-12T03:16:37.799Z,27.39
2017-04-12T03:17:47.778Z,27.3
2017-04-12T03:18:57.797Z,27.3
2017-04-12T03:20:07.769Z,27.39
2017-04-12T03:21:18.298Z,27.3
2017-04-12T03:22:28.583Z,27.59
2017-04-12T03:23:38.555Z,27.3
2017-04-12T03:24:48.845Z,27.69
2017-04-12T03:25:58.816Z,27.59
2017-04-12T03:27:09.038Z,27.59
2017-04-12T03:28:19.324Z,27.49
2017-04-12T03:29:29.618Z,27.59
2017-04-12T03:30:39.904Z,27.59
2017-04-12T03:31:50.186Z,27.7
2017-04-12T03:33:00.833Z,27.39
2017-04-12T03:34:10.490Z,27.59
2017-04-12T03:35:20.814Z,27.49
2017-04-12T03:36:31.095Z,27.97
2017-04-12T03:37:41.376Z,27.78
2017-04-12T03:38:51.967Z,27.59
2017-04-12T03:40:02.258Z,27.87
2017-04-12T03:41:12.568Z,27.97
2017-04-12T03:42:22.849Z,27.87
2017-04-12T03:43:33.133Z,27.87
2017-04-12T03:44:43.672Z,27.87
2017-04-12T03:45:53.955Z,27.87
2017-04-12T03:47:04.245Z,27.87
2017-04-12T03:48:14.530Z,27.97
2017-04-12T03:49:24.835Z,27.97
2017-04-12T03:50:35.390Z,27.87
2017-04-12T03:51:45.680Z,27.78
2017-04-12T03:52:55.993Z,27.97
2017-04-12T03:54:06.339Z,27.97
2017-04-12T03:55:16.632Z,28.07
2017-04-12T03:56:27.176Z,28.07
2017-04-12T03:57:37.461Z,27.97
2017-04-12T03:58:47.647Z,28.07
2017-04-12T03:59:57.928Z,27.97
2017-04-12T04:01:07.901Z,28.07
2017-04-12T04:02:18.135Z,27.97
2017-04-12T04:03:28.420Z,27.97
2017-04-12T04:04:38.406Z,27.97
2017-04-12T04:05:48.691Z,27.97
2017-04-12T04:06:58.668Z,27.87
2017-04-12T04:08:09.216Z,27.87
2017-04-12T04:09:19.508Z,27.97
2017-04-12T04:10:29.802Z,27.87
2017-04-12T04:11:40.085Z,27.87
2017-04-12T04:12:50.484Z,27.97
2017-04-12T04:14:01.025Z,27.87
2017-04-12T04:15:11.320Z,27.8
2017-04-12T04:16:21.610Z,27.87
2017-04-12T04:17:31.576Z,27.87
2017-04-12T04:18:41.860Z,27.87
2017-04-12T04:19:52.085Z,27.87
2017-04-12T04:21:02.380Z,28.07
2017-04-12T04:22:12.670Z,27.78
2017-04-12T04:23:22.651Z,27.8
2017-04-12T04:24:32.936Z,28.07
2017-04-12T04:25:43.485Z,27.87
2017-04-12T04:26:53.766Z,27.97
2017-04-12T04:28:04.058Z,28.26
2017-04-12T04:29:14.348Z,28.07
2017-04-12T04:30:24.632Z,28.07
2017-04-12T04:31:35.182Z,28.16
2017-04-12T04:32:45.459Z,28.26
2017-04-12T04:33:55.748Z,28.26
2017-04-12T04:35:06.073Z,28.36
2017-04-12T04:36:16.365Z,28.16
2017-04-12T04:37:26.582Z,28.26
2017-04-12T04:38:36.241Z,28.26
2017-04-12T04:39:46.530Z,28.16
2017-04-12T04:40:56.194Z,28.16
2017-04-12T04:42:06.635Z,27.97
2017-04-12T04:43:17.170Z,28.16
2017-04-12T04:44:27.154Z,28.07
2017-04-12T04:45:37.432Z,28.16
2017-04-12T04:46:47.741Z,28.16
2017-04-12T04:47:58.011Z,27.89
2017-04-12T04:49:08.885Z,28.07
2017-04-12T04:50:19.386Z,28.16
2017-04-12T04:51:29.372Z,28.07
2017-04-12T04:52:39.848Z,27.97
2017-04-12T04:53:50.142Z,27.97
2017-04-12T04:55:00.791Z,28.26
2017-04-12T04:56:11.109Z,28.26
2017-04-12T04:57:21.084Z,28.47
2017-04-12T04:58:31.364Z,28.37
2017-04-12T04:59:41.335Z,28.16
2017-04-12T05:00:51.614Z,28.45
2017-04-12T05:02:01.893Z,28.66
2017-04-12T05:03:12.176Z,28.45
2017-04-12T05:04:22.148Z,28.27
2017-04-12T05:05:32.439Z,27.98
2017-04-12T05:06:42.715Z,28.26
2017-04-12T05:07:52.685Z,28.55
2017-04-12T05:09:02.965Z,28.56
2017-04-12T05:10:12.943Z,27.89
2017-04-12T05:11:22.930Z,28.16
2017-04-12T05:12:33.462Z,27.98
2017-04-12T05:13:43.777Z,27.98
2017-04-12T05:14:54.072Z,28.18
2017-04-12T05:16:04.076Z,28.36
2017-04-12T05:17:14.044Z,27.98
2017-04-12T05:18:24.271Z,27.98
2017-04-12T05:19:34.603Z,27.98
2017-04-12T05:20:44.889Z,27.89
2017-04-12T05:21:54.564Z,27.98
2017-04-12T05:23:04.541Z,28.27
2017-04-12T05:24:14.461Z,27.89
2017-04-12T05:25:24.763Z,28.26
2017-04-12T05:26:34.743Z,28.37
2017-04-12T05:27:45.048Z,28.37
2017-04-12T05:28:55.348Z,27.89
2017-04-12T05:30:05.616Z,28.08
2017-04-12T05:31:15.897Z,28.37
2017-04-12T05:32:26.185Z,28.27
2017-04-12T05:33:36.163Z,28.37
2017-04-12T05:34:46.456Z,28.37
2017-04-12T05:35:57.002Z,28.37
2017-04-12T05:37:07.285Z,28.56
2017-04-12T05:38:17.562Z,28.55
2017-04-12T05:39:27.550Z,28.56
2017-04-12T05:40:37.523Z,28.56
2017-04-12T05:41:48.330Z,28.64
2017-04-12T05:42:58.635Z,28.56
2017-04-12T05:44:08.940Z,28.56
2017-04-12T05:45:18.910Z,28.56
2017-04-12T05:46:29.185Z,28.47
2017-04-12T05:47:39.430Z,28.47
2017-04-12T05:48:49.725Z,28.56
2017-04-12T05:50:00.020Z,28.56
2017-04-12T05:51:10.315Z,28.56
2017-04-12T05:52:20.609Z,28.47
2017-04-12T05:53:31.145Z,28.56
2017-04-12T05:54:41.123Z,28.56
2017-04-12T05:55:51.428Z,28.56
2017-04-12T05:57:01.718Z,28.47
2017-04-12T05:58:11.691Z,28.56
2017-04-12T05:59:21.936Z,28.66
2017-04-12T06:00:31.925Z,28.47
2017-04-12T06:01:41.913Z,28.56
2017-04-12T06:02:51.888Z,28.47
2017-04-12T06:04:01.876Z,28.66
2017-04-12T06:05:12.411Z,28.47
2017-04-12T06:06:22.408Z,28.56
2017-04-12T06:07:32.390Z,28.47
2017-04-12T06:08:42.695Z,28.66
2017-04-12T06:09:52.976Z,28.56
2017-04-12T06:11:02.945Z,28.66
2017-04-12T06:12:13.253Z,28.66
2017-04-12T06:13:23.571Z,28.56
2017-04-12T06:14:33.570Z,28.85
2017-04-12T06:15:43.857Z,28.85
2017-04-12T06:16:54.396Z,28.85
2017-04-12T06:18:04.692Z,28.85
2017-04-12T06:19:15.008Z,28.85
2017-04-12T06:20:25.309Z,28.56
2017-04-12T06:21:35.607Z,28.85
2017-04-12T06:22:46.194Z,28.75
2017-04-12T06:23:56.493Z,28.85
2017-04-12T06:25:06.483Z,28.75
2017-04-12T06:26:16.775Z,28.75
2017-04-12T06:27:27.072Z,28.75
2017-04-12T06:28:37.626Z,28.75
2017-04-12T06:29:47.607Z,28.66
2017-04-12T06:30:57.961Z,28.85
2017-04-12T06:32:08.266Z,28.85
2017-04-12T06:33:18.548Z,28.75
2017-04-12T06:34:29.080Z,28.85
2017-04-12T06:35:39.049Z,28.85
2017-04-12T06:36:49.016Z,28.75
2017-04-12T06:37:58.992Z,28.85
2017-04-12T06:39:08.986Z,28.75
2017-04-12T06:40:19.519Z,28.85
2017-04-12T06:41:29.812Z,28.75
2017-04-12T06:42:40.312Z,28.95
2017-04-12T06:43:50.313Z,28.95
2017-04-12T06:45:00.598Z,28.85
2017-04-12T06:46:11.193Z,29.14
2017-04-12T06:47:21.479Z,29.04
2017-04-12T06:48:31.446Z,28.95
2017-04-12T06:49:41.425Z,29.04
2017-04-12T06:50:51.715Z,29.04
2017-04-12T06:52:01.992Z,28.95
2017-04-12T06:53:12.282Z,28.95
2017-04-12T06:54:22.573Z,28.95
2017-04-12T06:55:32.876Z,28.75
2017-04-12T06:56:43.172Z,28.85
2017-04-12T06:57:54.082Z,28.75
2017-04-12T06:59:04.162Z,28.75
2017-04-12T07:00:14.223Z,28.75
2017-04-12T07:01:24.525Z,28.75
2017-04-12T07:02:34.566Z,28.75
2017-04-12T07:03:44.801Z,28.75
2017-04-12T07:04:55.103Z,28.85
2017-04-12T07:06:05.100Z,28.67
2017-04-12T07:07:15.074Z,28.86
2017-04-12T07:08:25.380Z,28.58
2017-04-12T07:09:36.013Z,28.56
2017-04-12T07:10:46.305Z,28.47
2017-04-12T07:11:56.598Z,28.58
2017-04-12T07:13:06.882Z,28.58
2017-04-12T07:14:17.189Z,28.48
2017-04-12T07:15:27.427Z,28.48
2017-04-12T07:16:37.392Z,28.67
2017-04-12T07:17:47.671Z,28.48
2017-04-12T07:18:57.658Z,28.58
2017-04-12T07:20:07.977Z,28.38
2017-04-12T07:21:18.584Z,28.38
2017-04-12T07:22:28.883Z,28.29
2017-04-12T07:23:39.191Z,28.48
2017-04-12T07:24:49.484Z,28.48
2017-04-12T07:25:59.771Z,28.58
2017-04-12T07:27:10.197Z,28.58
2017-04-12T07:28:20.197Z,28.58
2017-04-12T07:29:30.508Z,28.48
2017-04-12T07:30:40.815Z,28.58
2017-04-12T07:31:50.472Z,28.48
2017-04-12T07:33:01.016Z,28.48
2017-04-12T07:34:11.018Z,28.58
2017-04-12T07:35:21.329Z,28.48
2017-04-12T07:36:31.330Z,28.48
2017-04-12T07:37:41.507Z,28.67
2017-04-12T07:38:52.055Z,28.58
2017-04-12T07:40:02.368Z,28.48
2017-04-12T07:41:12.688Z,28.38
2017-04-12T07:42:22.992Z,28
2017-04-12T07:43:33.286Z,28.29
2017-04-12T07:44:43.834Z,28.48
2017-04-12T07:45:54.139Z,28
2017-04-12T07:47:03.816Z,27.91
2017-04-12T07:48:13.805Z,28.48
2017-04-12T07:49:24.109Z,28
2017-04-12T07:50:34.343Z,28
2017-04-12T07:51:44.651Z,28.09
2017-04-12T07:52:54.626Z,28.09
2017-04-12T07:54:04.910Z,28.19
2017-04-12T07:55:14.883Z,28.09
2017-04-12T07:56:25.423Z,28.19
2017-04-12T07:57:35.092Z,28.29
2017-04-12T07:58:45.402Z,28.09
2017-04-12T07:59:55.699Z,28.09
2017-04-12T08:01:05.985Z,28.19
2017-04-12T08:02:16.534Z,28.29
2017-04-12T08:03:26.829Z,28.29
2017-04-12T08:04:36.511Z,28.09
2017-04-12T08:05:46.816Z,28.19
2017-04-12T08:06:56.506Z,28.19
2017-04-12T08:08:07.075Z,28.2
2017-04-12T08:09:17.576Z,28.3
2017-04-12T08:10:27.168Z,28.11
2017-04-12T08:11:37.166Z,28.3
2017-04-12T08:12:47.441Z,28.2
2017-04-12T08:13:58.007Z,28.02
2017-04-12T08:15:08.301Z,28.2
2017-04-12T08:16:18.586Z,28.2
2017-04-12T08:17:28.876Z,28.4
2017-04-12T08:18:38.850Z,28.2
2017-04-12T08:19:49.386Z,28.11
2017-04-12T08:20:59.045Z,28.11
2017-04-12T08:22:09.025Z,28.2
2017-04-12T08:23:19.001Z,28.3
2017-04-12T08:24:29.283Z,28.11
2017-04-12T08:25:39.822Z,28.2
2017-04-12T08:26:49.820Z,28.2
2017-04-12T08:28:00.128Z,28.2
2017-04-12T08:29:10.410Z,28.11
2017-04-12T08:30:20.392Z,28.2
2017-04-12T08:31:30.945Z,28.11
2017-04-12T08:32:41.249Z,28.2
2017-04-12T08:33:51.538Z,28.11
2017-04-12T08:35:01.517Z,28.3
2017-04-12T08:36:11.497Z,28.11
2017-04-12T08:37:21.783Z,28.2
2017-04-12T08:38:31.772Z,28.11
2017-04-12T08:39:42.053Z,28.2
2017-04-12T08:40:52.036Z,28.3
2017-04-12T08:42:02.332Z,28.11
2017-04-12T08:43:12.558Z,28.2
2017-04-12T08:44:22.548Z,28.02
2017-04-12T08:45:32.852Z,28.02
2017-04-12T08:46:43.145Z,28.11
2017-04-12T08:47:53.432Z,28.2
2017-04-12T08:49:03.653Z,28.11
2017-04-12T08:50:13.954Z,27.92
2017-04-12T08:51:23.924Z,27.92
2017-04-12T08:52:33.589Z,27.92
2017-04-12T08:53:43.566Z,27.82
2017-04-12T08:54:53.799Z,27.82
2017-04-12T08:56:04.083Z,28.02
2017-04-12T08:57:14.067Z,27.92
2017-04-12T08:58:24.050Z,27.34
2017-04-12T08:59:34.329Z,28.02
2017-04-12T09:00:44.253Z,27.92
2017-04-12T09:01:54.245Z,28.02
2017-04-12T09:03:04.531Z,28.03
2017-04-12T09:04:15.050Z,28.03
2017-04-12T09:05:25.033Z,27.82
2017-04-12T09:06:35.626Z,28.02
2017-04-12T09:07:45.917Z,28.02
2017-04-12T09:08:56.225Z,28.02
2017-04-12T09:10:06.516Z,28.02
2017-04-12T09:11:16.801Z,28.02
2017-04-12T09:12:27.029Z,27.44
2017-04-12T09:13:37.053Z,28.11
2017-04-12T09:14:47.393Z,27.82
2017-04-12T09:15:57.690Z,27.44
2017-04-12T09:17:07.992Z,27.92
2017-04-12T09:18:18.537Z,27.72
2017-04-12T09:19:28.864Z,28.02
2017-04-12T09:20:38.863Z,27.82
2017-04-12T09:21:49.149Z,27.62
2017-04-12T09:22:59.470Z,27.53
2017-04-12T09:24:10.010Z,28.02
2017-04-12T09:25:20.320Z,28.02
2017-04-12T09:26:30.311Z,27.82
2017-04-12T09:27:40.621Z,27.82
2017-04-12T09:28:50.605Z,27.82
2017-04-12T09:30:00.583Z,27.44
2017-04-12T09:31:10.889Z,28.02
2017-04-12T09:32:21.179Z,27.34
2017-04-12T09:33:31.162Z,27.53
2017-04-12T09:34:41.461Z,27.72
2017-04-12T09:35:52.061Z,27.92
2017-04-12T09:37:02.355Z,27.34
2017-04-12T09:38:12.651Z,27.53
2017-04-12T09:39:22.941Z,27.64
2017-04-12T09:40:32.922Z,27.93
2017-04-12T09:41:43.161Z,27.34
2017-04-12T09:42:53.460Z,27.93
2017-04-12T09:44:03.461Z,27.35
2017-04-12T09:45:13.444Z,27.92
2017-04-12T09:46:23.438Z,27.53
2017-04-12T09:47:34.000Z,27.62
2017-04-12T09:48:43.976Z,27.62
2017-04-12T09:49:54.265Z,27.64
2017-04-12T09:51:03.970Z,27.83
2017-04-12T09:52:13.654Z,27.64
2017-04-12T09:53:24.205Z,27.45
2017-04-12T09:54:34.180Z,27.64
2017-04-12T09:55:44.180Z,27.64
2017-04-12T09:56:54.505Z,27.74
2017-04-12T09:58:04.484Z,27.35
2017-04-12T09:59:14.711Z,27.35
2017-04-12T10:00:24.699Z,27.45
2017-04-12T10:01:35.045Z,27.55
2017-04-12T10:02:45.357Z,27.26
2017-04-12T10:03:55.662Z,27.45
2017-04-12T10:05:06.220Z,27.55
2017-04-12T10:06:16.524Z,27.35
2017-04-12T10:07:26.817Z,27.35
2017-04-12T10:08:36.807Z,27.35
2017-04-12T10:09:46.790Z,27.64
2017-04-12T10:10:57.021Z,27.35
2017-04-12T10:12:07.324Z,27.35
2017-04-12T10:13:17.870Z,27.45
2017-04-12T10:14:27.863Z,27.35
2017-04-12T10:15:38.150Z,27.45
2017-04-12T10:16:48.746Z,27.45
2017-04-12T10:17:58.726Z,27.45
2017-04-12T10:19:09.027Z,27.55
2017-04-12T10:20:19.011Z,27.35
2017-04-12T10:21:29.295Z,27.64
2017-04-12T10:22:39.897Z,27.35
2017-04-12T10:23:50.183Z,27.64
2017-04-12T10:25:00.167Z,27.55
2017-04-12T10:26:10.454Z,27.26
2017-04-12T10:27:20.438Z,27.45
2017-04-12T10:28:31.028Z,27.45
2017-04-12T10:29:41.322Z,27.06
2017-04-12T10:30:51.611Z,27.35
2017-04-12T10:32:01.593Z,27.35
2017-04-12T10:33:11.585Z,27.26
2017-04-12T10:34:22.157Z,27.35
2017-04-12T10:35:32.446Z,27.35
2017-04-12T10:36:42.741Z,27.06
2017-04-12T10:37:52.719Z,27.35
2017-04-12T10:39:02.701Z,27.06
2017-04-12T10:40:13.237Z,27.26
2017-04-12T10:41:23.211Z,26.97
2017-04-12T10:42:33.197Z,27.26
2017-04-12T10:43:43.504Z,27.35
2017-04-12T10:44:54.042Z,27.16
2017-04-12T10:46:04.706Z,26.87
2017-04-12T10:47:15.006Z,26.97
2017-04-12T10:48:25.357Z,26.78
2017-04-12T10:49:35.416Z,26.68
2017-04-12T10:50:45.423Z,26.87
2017-04-12T10:51:56.087Z,26.68
2017-04-12T10:53:06.407Z,26.97
2017-04-12T10:54:16.746Z,26.78
2017-04-12T10:55:26.810Z,26.58
2017-04-12T10:56:37.149Z,26.39
2017-04-12T10:57:47.669Z,26.39
2017-04-12T10:58:58.016Z,26.39
2017-04-12T11:00:08.334Z,26.39
2017-04-12T11:01:18.669Z,26.48
2017-04-12T11:02:28.648Z,26.39
2017-04-12T11:03:38.936Z,26.48
2017-04-12T11:04:49.226Z,26.2
2017-04-12T11:05:59.531Z,26.2
2017-04-12T11:07:09.716Z,26.2
2017-04-12T11:08:19.688Z,26.29
2017-04-12T11:09:30.255Z,26.2
2017-04-12T11:10:40.545Z,26.48
2017-04-12T11:11:50.543Z,26.29
2017-04-12T11:13:00.833Z,26.29
2017-04-12T11:14:11.166Z,26.1
2017-04-12T11:15:21.717Z,26.29
2017-04-12T11:16:32.027Z,25.71
2017-04-12T11:17:42.334Z,25.81
2017-04-12T11:18:52.651Z,25.81
2017-04-12T11:20:02.953Z,25.91
2017-04-12T11:21:13.210Z,25.91
2017-04-12T11:22:23.493Z,26
2017-04-12T11:23:33.800Z,26
2017-04-12T11:24:44.095Z,26
2017-04-12T11:25:53.777Z,26
2017-04-12T11:27:04.013Z,25.91
2017-04-12T11:28:14.304Z,26.1
2017-04-12T11:29:24.608Z,26
2017-04-12T11:30:34.582Z,26.1
2017-04-12T11:31:44.879Z,25.91
2017-04-12T11:32:55.120Z,26
2017-04-12T11:34:05.135Z,26
2017-04-12T11:35:14.821Z,25.91
2017-04-12T11:36:25.128Z,25.71
2017-04-12T11:37:35.128Z,25.71
2017-04-12T11:38:45.738Z,25.43
2017-04-12T11:39:56.054Z,25.62
2017-04-12T11:41:06.355Z,25.63
2017-04-12T11:42:16.674Z,25.33
2017-04-12T11:43:26.989Z,25.24
2017-04-12T11:44:37.548Z,25.23
2017-04-12T11:45:47.848Z,25.44
2017-04-12T11:46:58.148Z,24.86
2017-04-12T11:48:08.458Z,24.86
2017-04-12T11:49:18.466Z,24.95
2017-04-12T11:50:28.426Z,24.85
2017-04-12T11:51:38.406Z,25.04
2017-04-12T11:52:48.453Z,25.04
2017-04-12T11:53:58.737Z,25.04
2017-04-12T11:55:09.032Z,25.05
2017-04-12T11:56:19.577Z,25.13
2017-04-12T11:57:29.556Z,25.24
2017-04-12T11:58:39.845Z,25.13
2017-04-12T11:59:49.819Z,25.13
2017-04-12T12:00:59.795Z,25.13
2017-04-12T12:02:10.342Z,25.13
2017-04-12T12:03:20.648Z,25.04
2017-04-12T12:04:30.948Z,24.95
2017-04-12T12:05:40.923Z,25.04
2017-04-12T12:06:50.596Z,24.85
2017-04-12T12:08:00.827Z,24.75
2017-04-12T12:09:11.151Z,24.85
2017-04-12T12:10:21.467Z,24.75
2017-04-12T12:11:31.768Z,24.85
2017-04-12T12:12:41.767Z,24.95
2017-04-12T12:13:52.314Z,24.85
2017-04-12T12:15:02.606Z,24.85
2017-04-12T12:16:12.708Z,25.04
2017-04-12T12:17:22.688Z,25.04
2017-04-12T12:18:32.973Z,25.13
2017-04-12T12:19:43.578Z,25.04
2017-04-12T12:20:53.892Z,24.95
2017-04-12T12:22:04.183Z,24.85
2017-04-12T12:23:14.479Z,25.04
2017-04-12T12:24:24.455Z,25.04
2017-04-12T12:25:35.012Z,24.95
2017-04-12T12:26:45.327Z,24.75
2017-04-12T12:27:55.298Z,24.85
2017-04-12T12:29:05.287Z,24.95
2017-04-12T12:30:14.957Z,24.46
2017-04-12T12:31:25.507Z,24.37
2017-04-12T12:32:35.498Z,24.46
2017-04-12T12:33:45.797Z,24.57
2017-04-12T12:34:55.793Z,24.09
2017-04-12T12:36:05.783Z,24.09
2017-04-12T12:37:16.019Z,23.99
2017-04-12T12:38:26.010Z,24.37
2017-04-12T12:39:36.302Z,24.56
2017-04-12T12:40:46.290Z,24.56
2017-04-12T12:41:56.595Z,24.46
2017-04-12T12:43:07.126Z,24.56
2017-04-12T12:44:17.431Z,24.46
2017-04-12T12:45:27.414Z,24.66
2017-04-12T12:46:36.794Z,24.56
2017-04-12T12:47:47.078Z,24.66
2017-04-12T12:48:57.624Z,24.66
2017-04-12T12:50:09.461Z,24.37
2017-04-12T12:51:19.775Z,24.66
2017-04-12T12:52:30.046Z,24.46
2017-04-12T12:53:39.721Z,24.56
2017-04-12T12:54:49.996Z,24.56
2017-04-12T12:55:59.978Z,24.66
2017-04-12T12:57:10.270Z,24.75
2017-04-12T12:58:20.574Z,24.85
2017-04-12T12:59:30.888Z,24.95
2017-04-12T13:00:40.810Z,24.95
2017-04-12T13:01:51.094Z,24.75
2017-04-12T13:03:01.077Z,24.85
2017-04-12T13:04:11.360Z,24.75
2017-04-12T13:05:21.357Z,24.85
2017-04-12T13:06:31.908Z,24.75
2017-04-12T13:07:41.885Z,24.75
2017-04-12T13:08:52.169Z,25.04
2017-04-12T13:10:02.151Z,24.75
2017-04-12T13:11:12.138Z,24.75
2017-04-12T13:12:22.683Z,24.75
2017-04-12T13:13:32.648Z,24.95
2017-04-12T13:14:42.945Z,24.75
2017-04-12T13:15:53.248Z,24.85
2017-04-12T13:17:03.559Z,24.85
2017-04-12T13:18:14.142Z,24.75
2017-04-12T13:19:24.422Z,24.85
2017-04-12T13:20:34.715Z,24.95
2017-04-12T13:21:45.002Z,25.04
2017-04-12T13:22:55.328Z,24.85
2017-04-12T13:24:04.982Z,24.85
2017-04-12T13:25:14.962Z,24.85
2017-04-12T13:26:25.281Z,24.84
2017-04-12T13:27:35.253Z,24.75
2017-04-12T13:28:45.541Z,24.85
2017-04-12T13:29:56.087Z,24.75
2017-04-12T13:31:05.761Z,24.74
2017-04-12T13:32:16.042Z,24.95
2017-04-12T13:33:26.346Z,24.84
2017-04-12T13:34:36.649Z,24.55
2017-04-12T13:35:47.242Z,24.45
2017-04-12T13:36:57.536Z,24.74
2017-04-12T13:38:07.875Z,24.26
2017-04-12T13:39:18.193Z,24.65
2017-04-12T13:40:28.482Z,24.35
2017-04-12T13:41:39.022Z,24.26
2017-04-12T13:42:49.003Z,24.55
2017-04-12T13:43:59.307Z,24.65
2017-04-12T13:45:09.801Z,24.55
2017-04-12T13:46:19.783Z,24.55
2017-04-12T13:47:30.382Z,24.65
2017-04-12T13:48:40.687Z,24.18
2017-04-12T13:49:50.973Z,24.45
2017-04-12T13:51:01.292Z,24.45
2017-04-12T13:52:11.589Z,24.35
2017-04-12T13:53:21.872Z,24.35
2017-04-12T13:54:32.170Z,24.35
2017-04-12T13:55:42.456Z,24.26
2017-04-12T13:56:52.121Z,24.07
2017-04-12T13:58:02.403Z,23.97
2017-04-12T13:59:12.955Z,24.16
2017-04-12T14:00:23.237Z,24.45
2017-04-12T14:01:33.215Z,24.35
2017-04-12T14:02:43.203Z,24.26
2017-04-12T14:03:53.184Z,24.26
2017-04-12T14:05:03.738Z,24.35
2017-04-12T14:06:13.721Z,24.45
2017-04-12T14:07:23.755Z,24.45
2017-04-12T14:08:34.039Z,24.26
2017-04-12T14:09:44.277Z,24.35
2017-04-12T14:10:54.503Z,24.35
2017-04-12T14:12:04.803Z,24.35
2017-04-12T14:13:15.088Z,24.45
2017-04-12T14:14:25.408Z,24.35
2017-04-12T14:15:35.393Z,24.35
2017-04-12T14:16:45.962Z,23.97
2017-04-12T14:17:55.639Z,24.35
2017-04-12T14:19:05.940Z,24.35
2017-04-12T14:20:16.251Z,24.45
2017-04-12T14:21:26.579Z,24.26
2017-04-12T14:22:37.126Z,24.45
2017-04-12T14:23:47.429Z,24.35
2017-04-12T14:24:57.734Z,24.45
2017-04-12T14:26:07.761Z,24.45
2017-04-12T14:27:18.061Z,24.16
2017-04-12T14:28:28.610Z,24.07
2017-04-12T14:29:38.602Z,24.35
2017-04-12T14:30:48.907Z,24.45
2017-04-12T14:31:58.918Z,24.55
2017-04-12T14:33:08.912Z,24.74
2017-04-12T14:34:19.145Z,24.84
2017-04-12T14:35:29.437Z,24.84
2017-04-12T14:36:39.745Z,24.74
2017-04-12T14:37:50.032Z,25.03
2017-04-12T14:39:00.336Z,24.93
2017-04-12T14:40:10.604Z,25.12
2017-04-12T14:41:20.923Z,25.03
2017-04-12T14:42:31.233Z,24.93
2017-04-12T14:43:41.241Z,24.93
2017-04-12T14:44:51.574Z,25.42
2017-04-12T14:46:01.831Z,25.42
2017-04-12T14:47:12.165Z,25.22
2017-04-12T14:48:22.173Z,25.32
2017-04-12T14:49:32.594Z,25.7
2017-04-12T14:50:42.889Z,25.6
2017-04-12T14:51:53.522Z,25.7
2017-04-12T14:53:03.849Z,25.7
2017-04-12T14:54:13.547Z,26.09
2017-04-12T14:55:23.867Z,25.99
2017-04-12T14:56:33.870Z,25.9
2017-04-12T14:57:44.501Z,25.7
2017-04-12T14:58:54.490Z,25.8
2017-04-12T15:00:04.812Z,25.99
2017-04-12T15:01:15.135Z,26.18
2017-04-12T15:02:25.484Z,26.09
2017-04-12T15:03:36.054Z,26.18
2017-04-12T15:04:46.420Z,26.28
2017-04-12T15:05:56.757Z,26.37
2017-04-12T15:07:07.092Z,26.67
2017-04-12T15:08:17.419Z,26.37
2017-04-12T15:09:27.671Z,26.47
2017-04-12T15:10:37.675Z,26.28
2017-04-12T15:11:47.363Z,26.57
2017-04-12T15:12:57.694Z,26.67
2017-04-12T15:14:07.990Z,26.86